Time;durP1;ratioP1;P1;durP2;ratioP2;P2;SDS_P1;SDS_P2;PMS_P1;PMS_P2;Temp;Humidity;BMP_temperature;BMP_pressure;BME280_temperature;BME280_humidity;BME280_pressure;Samples;Min_cycle;Max_cycle;Signal;HPM_P1;HPM_P2
2022/05/28 00:01:16;;;;;;;8.85;1.38;;;11.00;99.90;;;;;;5049570;28;20076;-80
2022/05/28 00:03:42;;;;;;;5.80;1.52;;;11.00;99.90;;;;;;5050236;28;20127;-80
2022/05/28 00:06:19;;;;;;;10.60;1.52;;;11.00;99.90;;;;;;5049349;28;20534;-79
2022/05/28 00:08:46;;;;;;;12.23;2.33;;;10.90;99.90;;;;;;5067050;28;20041;-80
2022/05/28 00:11:24;;;;;;;8.95;1.38;;;10.90;99.90;;;;;;5053892;28;20147;-79
2022/05/28 00:13:50;;;;;;;6.55;1.75;;;10.90;99.90;;;;;;5053489;28;20076;-79
2022/05/28 00:16:17;;;;;;;8.13;1.52;;;10.80;99.90;;;;;;5050436;28;20033;-79
2022/05/28 00:18:44;;;;;;;7.38;1.40;;;10.80;99.90;;;;;;5050376;28;20086;-79
2022/05/28 00:21:11;;;;;;;6.03;1.40;;;10.80;99.90;;;;;;5067165;28;20498;-79
2022/05/28 00:23:37;;;;;;;9.82;1.55;;;10.80;99.90;;;;;;5052032;28;20120;-80
2022/05/28 00:26:04;;;;;;;8.93;1.33;;;10.70;99.90;;;;;;5060598;28;20053;-80
2022/05/28 00:28:31;;;;;;;13.52;2.17;;;10.60;99.90;;;;;;5044030;28;20045;-80
2022/05/28 00:30:56;;;;;;;6.80;1.60;;;10.60;99.90;;;;;;5045671;28;20037;-80
2022/05/28 00:33:22;;;;;;;11.30;1.58;;;10.60;99.90;;;;;;5054167;28;20365;-80
2022/05/28 00:35:49;;;;;;;7.78;1.50;;;10.60;99.90;;;;;;5049803;28;20087;-80
2022/05/28 00:38:15;;;;;;;7.90;1.75;;;10.50;99.90;;;;;;5055327;28;20045;-80
2022/05/28 00:40:48;;;;;;;10.35;1.60;;;10.50;99.90;;;;;;5034643;28;20037;-80
2022/05/28 00:43:14;;;;;;;9.88;1.52;;;10.50;99.90;;;;;;5058680;28;20049;-80
2022/05/28 00:45:40;;;;;;;8.98;1.55;;;10.40;99.90;;;;;;5059157;28;20032;-80
2022/05/28 00:48:07;;;;;;;7.35;1.67;;;10.30;99.90;;;;;;5049000;28;20048;-79
2022/05/28 00:50:35;;;;;;;7.93;1.88;;;10.30;99.90;;;;;;5077446;28;20032;-79
2022/05/28 00:53:03;;;;;;;9.85;1.33;;;10.30;99.90;;;;;;5049812;28;20064;-80
2022/05/28 00:55:32;;;;;;;9.65;1.88;;;10.30;99.90;;;;;;5050668;28;20372;-80
2022/05/28 00:57:59;;;;;;;8.07;1.55;;;10.30;99.90;;;;;;5052383;28;20123;-80
2022/05/28 01:00:25;;;;;;;8.10;1.40;;;10.20;99.90;;;;;;5053280;28;20048;-81
2022/05/28 01:03:09;;;;;;;10.75;1.70;;;10.20;99.90;;;;;;5049845;28;20045;-79
2022/05/28 01:05:48;;;;;;;7.15;1.40;;;10.20;99.90;;;;;;5046462;28;20049;-80
2022/05/28 01:08:41;;;;;;;10.63;1.50;;;10.20;99.90;;;;;;5059684;28;20103;-79
2022/05/28 01:11:16;;;;;;;6.68;1.65;;;10.10;99.90;;;;;;5065954;28;20033;-80
2022/05/28 01:13:45;;;;;;;11.73;1.60;;;10.00;99.90;;;;;;5032203;28;20053;-80
2022/05/28 01:16:19;;;;;;;7.50;1.35;;;10.00;99.90;;;;;;5049895;28;20124;-80
2022/05/28 01:19:23;;;;;;;9.95;1.27;;;10.00;99.90;;;;;;5056384;28;20036;-80
2022/05/28 01:22:19;;;;;;;10.65;1.50;;;10.00;99.90;;;;;;5045211;28;20060;-80
2022/05/28 01:25:14;;;;;;;9.63;1.83;;;10.00;99.90;;;;;;5049679;28;20065;-80
2022/05/28 01:27:46;;;;;;;14.93;1.80;;;10.00;99.90;;;;;;5055911;28;20045;-80
2022/05/28 01:30:15;;;;;;;6.75;1.27;;;10.00;99.90;;;;;;5044854;28;20056;-80
2022/05/28 01:32:44;;;;;;;8.68;1.40;;;9.90;99.90;;;;;;5048230;28;20709;-80
2022/05/28 01:35:12;;;;;;;14.82;2.10;;;10.00;99.90;;;;;;5062151;28;20044;-80
2022/05/28 01:37:39;;;;;;;10.00;2.15;;;9.90;99.90;;;;;;5067665;22;20009;-72
2022/05/28 01:40:08;;;;;;;6.90;1.63;;;9.90;99.90;;;;;;5066938;28;20044;-72
2022/05/28 01:42:36;;;;;;;7.38;1.65;;;9.90;99.90;;;;;;5068074;28;20063;-72
2022/05/28 01:45:04;;;;;;;8.35;1.92;;;9.80;99.90;;;;;;5064483;28;20039;-72
2022/05/28 01:47:31;;;;;;;10.80;1.70;;;9.80;99.90;;;;;;5065912;28;20083;-72
2022/05/28 01:49:58;;;;;;;9.90;1.50;;;9.70;99.90;;;;;;5068604;28;20067;-72
2022/05/28 01:52:26;;;;;;;6.90;1.25;;;9.70;99.90;;;;;;5066342;28;20580;-73
2022/05/28 01:54:53;;;;;;;8.63;1.70;;;9.70;99.90;;;;;;5049906;28;20048;-73
2022/05/28 01:57:18;;;;;;;11.25;2.28;;;9.70;99.90;;;;;;5070474;28;20028;-73
2022/05/28 01:59:44;;;;;;;8.20;1.50;;;9.60;99.90;;;;;;5075731;28;20566;-72
2022/05/28 02:02:12;;;;;;;8.10;1.58;;;9.60;99.90;;;;;;5071124;28;20045;-72
2022/05/28 02:04:41;;;;;;;9.85;1.50;;;9.70;99.90;;;;;;5071189;28;20131;-73
2022/05/28 02:07:07;;;;;;;8.90;2.15;;;9.60;99.90;;;;;;5068652;28;20028;-72
2022/05/28 02:09:37;;;;;;;9.02;1.70;;;9.60;99.90;;;;;;5073464;28;20043;-73
2022/05/28 02:12:11;;;;;;;7.07;1.48;;;9.50;99.90;;;;;;5047528;28;20044;-73
2022/05/28 02:14:45;;;;;;;8.20;1.73;;;9.50;99.90;;;;;;5067074;28;20060;-73
2022/05/28 02:17:30;;;;;;;7.45;1.40;;;9.40;99.90;;;;;;5072438;28;20037;-73
2022/05/28 02:20:20;;;;;;;8.48;1.48;;;9.40;99.90;;;;;;5056059;28;20440;-73
2022/05/28 02:22:55;;;;;;;11.85;2.08;;;9.40;99.90;;;;;;5054458;28;20044;-72
2022/05/28 02:25:57;;;;;;;7.18;1.45;;;9.30;99.90;;;;;;5071263;28;20048;-73
2022/05/28 02:28:23;;;;;;;10.18;1.77;;;9.30;99.90;;;;;;5065637;28;20442;-73
2022/05/28 02:31:02;;;;;;;12.40;1.90;;;9.30;99.90;;;;;;5070448;28;20486;-73
2022/05/28 02:33:29;;;;;;;7.10;1.80;;;9.30;99.90;;;;;;5083586;28;20040;-72
2022/05/28 02:35:55;;;;;;;7.88;1.63;;;9.30;99.90;;;;;;5053731;28;20787;-73
2022/05/28 02:38:20;;;;;;;10.30;2.60;;;9.30;99.90;;;;;;5056909;28;20139;-72
2022/05/28 02:40:46;;;;;;;9.52;1.50;;;9.30;99.90;;;;;;5071300;28;20514;-73
2022/05/28 02:43:12;;;;;;;10.13;1.50;;;9.40;99.90;;;;;;5070005;28;20039;-73
2022/05/28 02:45:39;;;;;;;6.13;1.60;;;9.50;99.90;;;;;;5070764;28;20131;-72
2022/05/28 02:48:04;;;;;;;9.18;2.08;;;9.60;99.90;;;;;;5070443;28;20627;-72
2022/05/28 02:50:30;;;;;;;8.25;2.50;;;9.60;99.90;;;;;;5066736;28;20069;-72
2022/05/28 02:52:56;;;;;;;8.25;1.98;;;9.60;99.90;;;;;;5068397;28;20504;-73
2022/05/28 02:55:22;;;;;;;8.35;1.73;;;9.60;99.90;;;;;;5072361;28;20039;-73
2022/05/28 02:57:48;;;;;;;5.07;1.50;;;9.60;99.90;;;;;;5066955;28;20474;-72
2022/05/28 03:00:15;;;;;;;9.30;1.52;;;9.60;99.90;;;;;;5052108;28;20122;-72
2022/05/28 03:02:44;;;;;;;8.95;1.58;;;9.70;99.90;;;;;;5053693;28;20036;-72
2022/05/28 03:05:14;;;;;;;8.27;2.03;;;9.80;99.90;;;;;;5065398;28;20036;-72
2022/05/28 03:07:40;;;;;;;9.55;2.30;;;9.80;99.90;;;;;;5068237;28;20041;-72
2022/05/28 03:10:06;;;;;;;7.43;2.03;;;9.90;99.90;;;;;;5052722;28;20040;-71
2022/05/28 03:12:31;;;;;;;9.27;1.92;;;9.90;99.90;;;;;;5079346;28;20038;-71
2022/05/28 03:14:57;;;;;;;8.27;1.90;;;9.90;99.90;;;;;;5062270;28;20040;-71
2022/05/28 03:17:22;;;;;;;8.05;1.63;;;9.90;99.90;;;;;;5053885;28;20501;-72
2022/05/28 03:19:48;;;;;;;8.93;1.58;;;9.80;99.90;;;;;;5071293;28;20044;-72
2022/05/28 03:22:14;;;;;;;8.77;1.55;;;9.90;99.90;;;;;;5070936;28;20532;-72
2022/05/28 03:24:39;;;;;;;13.85;2.17;;;10.00;99.90;;;;;;5069673;28;20082;-72
2022/05/28 03:27:05;;;;;;;8.98;1.60;;;10.00;99.90;;;;;;5070491;28;20067;-72
2022/05/28 03:29:31;;;;;;;10.02;2.05;;;9.90;99.90;;;;;;5053562;28;20039;-72
2022/05/28 03:31:56;;;;;;;5.97;1.67;;;9.90;99.90;;;;;;5066480;28;20052;-72
2022/05/28 03:34:22;;;;;;;9.43;2.03;;;9.90;99.90;;;;;;5043883;28;20612;-72
2022/05/28 03:36:47;;;;;;;10.75;2.28;;;9.90;99.90;;;;;;5059053;28;20040;-72
2022/05/28 03:39:13;;;;;;;8.13;2.03;;;10.00;99.90;;;;;;5073198;28;20127;-72
2022/05/28 03:41:40;;;;;;;10.38;2.38;;;10.00;99.90;;;;;;5069879;28;20060;-72
2022/05/28 03:44:06;;;;;;;8.50;1.83;;;10.10;99.90;;;;;;5069989;28;20587;-72
2022/05/28 03:46:34;;;;;;;8.82;1.92;;;10.10;99.90;;;;;;5068767;28;20040;-72
2022/05/28 03:49:04;;;;;;;8.13;2.38;;;10.10;99.90;;;;;;5049911;28;20040;-73
2022/05/28 03:51:30;;;;;;;11.60;2.42;;;10.20;99.90;;;;;;5067777;28;20071;-73
2022/05/28 03:53:56;;;;;;;11.80;2.28;;;10.20;99.90;;;;;;5052453;28;20115;-72
2022/05/28 03:56:24;;;;;;;11.60;2.65;;;10.20;99.90;;;;;;5051210;28;20151;-73
2022/05/28 03:58:50;;;;;;;11.32;2.55;;;10.20;99.90;;;;;;5086727;28;20040;-73
2022/05/28 04:01:17;;;;;;;12.93;2.10;;;10.30;99.90;;;;;;5069538;28;20539;-72
2022/05/28 04:03:42;;;;;;;11.70;2.25;;;10.30;99.90;;;;;;5069314;28;20052;-73
2022/05/28 04:06:09;;;;;;;13.98;2.50;;;10.30;99.90;;;;;;5070059;28;20505;-72
2022/05/28 04:08:35;;;;;;;12.40;2.67;;;10.20;99.90;;;;;;5066507;28;20055;-73
2022/05/28 04:11:01;;;;;;;9.25;2.30;;;10.20;99.90;;;;;;5069669;28;20044;-73
2022/05/28 04:13:26;;;;;;;10.35;2.67;;;10.10;99.90;;;;;;5052264;28;20048;-72
2022/05/28 04:15:52;;;;;;;13.30;2.60;;;10.10;99.90;;;;;;5047802;28;20047;-73
2022/05/28 04:18:18;;;;;;;11.73;2.55;;;10.10;99.90;;;;;;5069839;28;20362;-73
2022/05/28 04:20:44;;;;;;;17.63;3.13;;;10.00;99.90;;;;;;5067835;28;20047;-73
2022/05/28 04:23:10;;;;;;;11.75;2.28;;;10.00;99.90;;;;;;5068266;28;20501;-73
2022/05/28 04:25:35;;;;;;;10.40;2.15;;;10.00;99.90;;;;;;5049033;28;20383;-72
2022/05/28 04:28:01;;;;;;;13.32;2.70;;;10.00;99.90;;;;;;5068971;28;20048;-72
2022/05/28 04:30:27;;;;;;;12.20;2.10;;;10.00;99.90;;;;;;5069282;28;20036;-73
2022/05/28 04:32:52;;;;;;;11.57;2.58;;;10.00;99.90;;;;;;5051836;28;20044;-74
2022/05/28 04:35:18;;;;;;;12.57;2.75;;;10.00;99.90;;;;;;5063160;28;20181;-72
2022/05/28 04:37:43;;;;;;;10.60;2.20;;;10.10;99.90;;;;;;5073450;28;20097;-72
2022/05/28 04:40:10;;;;;;;14.43;2.40;;;10.10;99.90;;;;;;5052363;28;20102;-72
2022/05/28 04:42:35;;;;;;;11.70;2.83;;;10.20;99.90;;;;;;5050142;28;20490;-72
2022/05/28 04:45:03;;;;;;;13.40;2.10;;;10.30;99.90;;;;;;5051491;28;20050;-73
2022/05/28 04:47:28;;;;;;;14.95;2.67;;;10.40;99.90;;;;;;5062248;28;20348;-73
2022/05/28 04:49:54;;;;;;;14.35;2.88;;;10.50;99.90;;;;;;5067787;28;20043;-74
2022/05/28 04:52:20;;;;;;;13.82;2.90;;;10.60;99.90;;;;;;5064191;28;20127;-74
2022/05/28 04:54:45;;;;;;;13.35;3.03;;;10.70;99.90;;;;;;5055954;28;20044;-73
2022/05/28 04:57:11;;;;;;;14.50;2.63;;;10.80;99.90;;;;;;5056236;28;20033;-73
2022/05/28 04:59:36;;;;;;;9.93;2.30;;;11.00;99.90;;;;;;5055266;28;20044;-73
2022/05/28 05:02:02;;;;;;;12.70;2.47;;;11.10;99.90;;;;;;5049929;28;20044;-74
2022/05/28 05:04:28;;;;;;;14.38;2.83;;;11.10;99.90;;;;;;5050317;28;20463;-73
2022/05/28 05:06:53;;;;;;;12.10;2.85;;;11.20;99.90;;;;;;5052716;28;20067;-74
2022/05/28 05:09:19;;;;;;;8.30;2.10;;;11.10;99.90;;;;;;5067598;28;20068;-73
2022/05/28 05:11:44;;;;;;;15.35;2.35;;;11.10;99.90;;;;;;5067242;28;20044;-74
2022/05/28 05:14:10;;;;;;;13.48;2.63;;;11.00;99.90;;;;;;5067947;28;20040;-73
2022/05/28 05:16:35;;;;;;;9.80;2.75;;;11.10;99.90;;;;;;5069883;28;20040;-73
2022/05/28 05:19:01;;;;;;;11.45;2.10;;;11.00;99.90;;;;;;5069118;28;20048;-74
2022/05/28 05:21:26;;;;;;;8.35;2.53;;;11.20;99.90;;;;;;5058330;28;20044;-73
2022/05/28 05:23:52;;;;;;;10.95;2.47;;;11.30;99.90;;;;;;5067633;28;20667;-73
2022/05/28 05:26:20;;;;;;;11.63;2.17;;;11.30;99.90;;;;;;5069475;28;20390;-73
2022/05/28 05:28:46;;;;;;;18.02;2.75;;;11.40;99.90;;;;;;5055457;28;20090;-73
2022/05/28 05:31:13;;;;;;;13.32;2.80;;;11.50;99.90;;;;;;5071138;28;20040;-73
2022/05/28 05:33:39;;;;;;;10.95;2.85;;;11.60;99.90;;;;;;5073121;28;20037;-73
2022/05/28 05:36:04;;;;;;;15.02;2.92;;;11.60;99.90;;;;;;5071038;28;20039;-73
2022/05/28 05:38:30;;;;;;;11.05;2.38;;;11.70;99.90;;;;;;5055737;28;20045;-73
2022/05/28 05:40:56;;;;;;;11.15;2.55;;;11.80;99.90;;;;;;5056624;28;20095;-73
2022/05/28 05:43:21;;;;;;;29.00;17.55;;;11.80;99.90;;;;;;5073272;28;20044;-73
2022/05/28 05:45:59;;;;;;;24.52;13.30;;;11.90;99.90;;;;;;5072165;28;20048;-74
2022/05/28 05:48:25;;;;;;;20.88;9.95;;;12.00;99.90;;;;;;5055993;28;20125;-74
2022/05/28 05:50:51;;;;;;;10.90;3.75;;;12.20;99.90;;;;;;5072578;28;20053;-74
2022/05/28 05:53:17;;;;;;;10.02;2.92;;;12.50;99.90;;;;;;5072727;28;20039;-74
2022/05/28 05:55:44;;;;;;;12.48;3.08;;;13.00;99.90;;;;;;5046602;28;20474;-74
2022/05/28 05:58:10;;;;;;;12.85;2.78;;;13.40;99.90;;;;;;5064493;28;20181;-74
2022/05/28 06:00:36;;;;;;;10.25;2.15;;;13.70;99.90;;;;;;5070296;28;20047;-74
2022/05/28 06:03:02;;;;;;;9.45;2.50;;;13.70;99.90;;;;;;5065483;28;20122;-74
2022/05/28 06:05:28;;;;;;;12.43;3.20;;;13.90;99.90;;;;;;5072084;28;20056;-75
2022/05/28 06:07:53;;;;;;;14.45;2.78;;;14.10;99.90;;;;;;5069547;28;20037;-74
2022/05/28 06:10:19;;;;;;;8.32;1.77;;;14.30;99.90;;;;;;5063216;28;20043;-74
2022/05/28 06:12:45;;;;;;;9.90;2.38;;;14.80;99.90;;;;;;5052712;28;20040;-74
2022/05/28 06:15:12;;;;;;;9.75;2.58;;;16.00;99.90;;;;;;5054785;28;20036;-75
2022/05/28 06:17:38;;;;;;;13.07;2.53;;;16.50;99.90;;;;;;5060229;28;20048;-75
2022/05/28 06:20:06;;;;;;;10.50;2.65;;;16.50;99.90;;;;;;5069344;28;20047;-74
2022/05/28 06:22:31;;;;;;;7.38;2.17;;;16.00;99.90;;;;;;5071483;28;20041;-74
2022/05/28 06:24:57;;;;;;;12.57;2.28;;;15.60;99.90;;;;;;5052809;28;20479;-74
2022/05/28 06:27:23;;;;;;;11.25;2.60;;;15.20;99.90;;;;;;5070699;28;20482;-74
2022/05/28 06:29:48;;;;;;;9.65;2.45;;;14.90;99.90;;;;;;5070059;28;20040;-74
2022/05/28 06:32:14;;;;;;;8.80;2.42;;;14.60;99.90;;;;;;5072081;28;20044;-73
2022/05/28 06:34:39;;;;;;;10.57;2.58;;;14.60;99.90;;;;;;5071999;28;20040;-74
2022/05/28 06:37:09;;;;;;;7.72;2.10;;;14.60;99.90;;;;;;5060407;28;20044;-74
2022/05/28 06:39:35;;;;;;;10.27;2.55;;;14.50;99.90;;;;;;5062288;28;20036;-74
2022/05/28 06:42:01;;;;;;;11.18;2.67;;;13.90;99.90;;;;;;5053458;28;20048;-73
2022/05/28 06:44:27;;;;;;;6.97;2.22;;;13.50;99.90;;;;;;5069912;28;20378;-74
2022/05/28 06:46:53;;;;;;;8.00;2.55;;;13.40;99.90;;;;;;5051115;28;20040;-73
2022/05/28 06:49:19;;;;;;;8.85;2.20;;;13.40;99.90;;;;;;5069516;28;20041;-73
2022/05/28 06:51:44;;;;;;;9.75;2.25;;;13.40;99.90;;;;;;5071802;28;20044;-74
2022/05/28 06:54:10;;;;;;;7.70;1.90;;;13.70;99.90;;;;;;5051377;28;20576;-74
2022/05/28 06:56:36;;;;;;;7.75;1.85;;;14.80;99.90;;;;;;5063382;28;20068;-74
2022/05/28 06:59:01;;;;;;;9.13;2.20;;;16.00;99.90;;;;;;5071211;28;20461;-73
2022/05/28 07:01:27;;;;;;;6.88;1.85;;;16.60;99.90;;;;;;5053637;28;20051;-74
2022/05/28 07:03:53;;;;;;;9.30;2.00;;;16.00;99.30;;;;;;5062729;28;20094;-74
2022/05/28 07:06:18;;;;;;;5.85;1.65;;;15.80;99.90;;;;;;5067920;28;20059;-73
2022/05/28 07:08:45;;;;;;;9.60;1.80;;;15.40;99.70;;;;;;5064554;28;20044;-74
2022/05/28 07:11:11;;;;;;;5.35;1.50;;;15.90;99.90;;;;;;5061949;28;20080;-74
2022/05/28 07:13:37;;;;;;;9.10;2.15;;;16.40;99.90;;;;;;5064914;28;20508;-75
2022/05/28 07:16:05;;;;;;;5.18;1.75;;;16.00;99.90;;;;;;5066703;28;20033;-74
2022/05/28 07:18:35;;;;;;;7.60;2.17;;;15.90;99.90;;;;;;5062006;28;20044;-74
2022/05/28 07:21:00;;;;;;;5.93;1.63;;;15.40;99.90;;;;;;5051035;28;20044;-74
2022/05/28 07:23:28;;;;;;;7.13;1.50;;;15.10;99.90;;;;;;5062906;28;20093;-75
2022/05/28 07:25:59;;;;;;;7.88;1.70;;;15.00;99.90;;;;;;5060962;28;20539;-74
2022/05/28 07:28:25;;;;;;;7.25;1.88;;;15.10;99.90;;;;;;5046511;28;20060;-75
2022/05/28 07:31:00;;;;;;;8.82;1.80;;;14.80;99.90;;;;;;5053821;28;20060;-74
2022/05/28 07:33:26;;;;;;;8.38;2.20;;;14.70;99.90;;;;;;5069280;28;20119;-75
2022/05/28 07:35:54;;;;;;;7.93;1.70;;;14.50;99.90;;;;;;5069013;28;20037;-74
2022/05/28 07:38:21;;;;;;;9.65;1.80;;;14.50;99.90;;;;;;5057130;28;20052;-74
2022/05/28 07:40:47;;;;;;;5.60;2.05;;;14.50;99.90;;;;;;5069533;28;20110;-74
2022/05/28 07:43:12;;;;;;;5.43;1.98;;;14.70;99.90;;;;;;5067921;28;20470;-75
2022/05/28 07:45:40;;;;;;;7.65;2.00;;;14.80;99.90;;;;;;5067226;28;20052;-74
2022/05/28 07:48:06;;;;;;;11.23;2.80;;;14.90;99.90;;;;;;5070195;28;20119;-74
2022/05/28 07:50:32;;;;;;;8.88;2.53;;;14.90;99.90;;;;;;5052549;28;20070;-74
2022/05/28 07:52:59;;;;;;;13.77;2.92;;;14.80;99.90;;;;;;5070358;28;20550;-74
2022/05/28 07:55:26;;;;;;;13.27;2.20;;;14.70;99.90;;;;;;5052569;28;20036;-74
2022/05/28 07:57:51;;;;;;;11.07;2.15;;;15.70;99.90;;;;;;5070207;28;20032;-78
2022/05/28 08:00:17;;;;;;;13.30;2.97;;;15.90;99.90;;;;;;5056912;28;20040;-77
2022/05/28 08:02:43;;;;;;;11.93;2.80;;;16.70;99.90;;;;;;5069329;28;20458;-78
2022/05/28 08:05:08;;;;;;;13.82;3.05;;;17.10;99.90;;;;;;5053708;28;20110;-78
2022/05/28 08:07:34;;;;;;;14.25;3.00;;;16.60;99.10;;;;;;5070177;28;20084;-78
2022/05/28 08:10:00;;;;;;;15.90;7.30;;;16.00;99.80;;;;;;5077281;28;20172;-78
2022/05/28 08:12:25;;;;;;;22.63;13.38;;;15.00;99.90;;;;;;5069968;28;20033;-77
2022/05/28 08:14:51;;;;;;;14.13;3.47;;;14.80;99.90;;;;;;5054309;28;20048;-78
2022/05/28 08:17:17;;;;;;;11.43;2.50;;;14.60;99.90;;;;;;5070099;28;20036;-78
2022/05/28 08:19:43;;;;;;;11.82;2.80;;;14.70;99.90;;;;;;5066631;28;20048;-78
2022/05/28 08:24:53;;;;;;;12.80;2.22;;;15.00;99.90;;;;;;5069846;28;20040;-78
2022/05/28 08:27:18;;;;;;;12.45;2.72;;;15.20;99.90;;;;;;5069812;28;20040;-77
2022/05/28 08:29:44;;;;;;;12.02;2.55;;;14.90;99.90;;;;;;5053013;28;20410;-77
2022/05/28 08:32:10;;;;;;;11.05;2.75;;;15.00;99.90;;;;;;5051513;28;20486;-77
2022/05/28 08:34:35;;;;;;;11.10;2.40;;;15.30;99.90;;;;;;5070183;28;20039;-78
2022/05/28 08:37:01;;;;;;;9.65;2.10;;;15.20;99.20;;;;;;5050773;28;20044;-78
2022/05/28 08:39:28;;;;;;;9.15;2.72;;;15.20;99.90;;;;;;5059036;28;20049;-77
2022/05/28 08:41:57;;;;;;;10.30;1.98;;;15.20;99.50;;;;;;5070670;28;20063;-77
2022/05/28 08:44:29;;;;;;;11.85;2.53;;;15.00;99.50;;;;;;5070143;28;20371;-78
2022/05/28 08:47:03;;;;;;;8.95;2.28;;;15.00;99.90;;;;;;5066541;28;20201;-77
2022/05/28 08:49:29;;;;;;;13.90;2.67;;;15.10;99.90;;;;;;5069727;28;20039;-78
2022/05/28 08:52:03;;;;;;;11.75;2.95;;;15.30;99.90;;;;;;5069797;28;20048;-78
2022/05/28 08:54:41;;;;;;;15.63;3.13;;;15.50;99.90;;;;;;5082230;28;20046;-77
2022/05/28 08:57:18;;;;;;;11.13;2.72;;;15.30;99.90;;;;;;5077288;28;20048;-78
2022/05/28 08:59:57;;;;;;;11.75;3.28;;;15.10;99.90;;;;;;5064276;28;20497;-78
2022/05/28 09:02:47;;;;;;;13.77;2.90;;;15.00;99.90;;;;;;5038649;28;20056;-78
2022/05/28 09:05:28;;;;;;;13.80;2.70;;;14.70;99.90;;;;;;5064633;28;20070;-78
2022/05/28 09:07:58;;;;;;;11.68;2.60;;;14.60;99.90;;;;;;5069587;28;20068;-77
2022/05/28 09:10:26;;;;;;;16.60;3.10;;;14.30;99.90;;;;;;5066330;28;20044;-78
2022/05/28 09:13:00;;;;;;;11.43;2.58;;;14.60;99.90;;;;;;5069637;28;20056;-78
2022/05/28 09:15:26;;;;;;;60.53;6.15;;;14.90;99.90;;;;;;5069989;28;20130;-78
2022/05/28 09:17:56;;;;;;;10.63;2.55;;;15.00;98.90;;;;;;5069746;28;20072;-77
2022/05/28 09:20:31;;;;;;;8.73;2.15;;;15.20;99.30;;;;;;5069639;28;20044;-78
2022/05/28 09:22:57;;;;;;;10.00;3.35;;;15.20;98.10;;;;;;5061437;28;20046;-78
2022/05/28 09:25:29;;;;;;;11.35;2.47;;;15.50;98.00;;;;;;5069481;28;20033;-77
2022/05/28 09:27:55;;;;;;;9.52;1.90;;;15.50;96.80;;;;;;5051709;28;20037;-78
2022/05/28 09:30:26;;;;;;;10.68;2.70;;;15.60;98.00;;;;;;5045431;28;20048;-78
2022/05/28 09:33:10;;;;;;;11.80;3.05;;;15.40;97.90;;;;;;5062972;28;20052;-78
2022/05/28 09:35:41;;;;;;;11.93;2.42;;;15.20;98.70;;;;;;5062961;28;20032;-77
2022/05/28 09:38:21;;;;;;;10.65;2.08;;;15.10;98.80;;;;;;5040862;28;20127;-78
2022/05/28 09:40:52;;;;;;;7.18;2.20;;;14.90;99.50;;;;;;5066814;28;20060;-78
2022/05/28 09:44:03;;;;;;;7.88;1.90;;;14.90;99.30;;;;;;5052396;28;20060;-78
2022/05/28 09:46:36;;;;;;;7.38;2.13;;;14.90;96.50;;;;;;5061119;28;20074;-77
2022/05/28 09:49:13;;;;;;;8.48;1.85;;;14.90;97.50;;;;;;5069098;28;20041;-77
2022/05/28 09:51:48;;;;;;;12.25;2.65;;;15.10;98.30;;;;;;5061599;28;20024;-77
2022/05/28 09:54:23;;;;;;;9.55;1.95;;;15.40;97.50;;;;;;5042867;28;20413;-78
2022/05/28 09:57:00;;;;;;;12.15;2.05;;;15.50;97.60;;;;;;5051536;28;20359;-78
2022/05/28 09:59:32;;;;;;;10.80;2.22;;;15.40;97.00;;;;;;5061756;28;20405;-78
2022/05/28 10:02:01;;;;;;;9.48;2.00;;;15.40;97.20;;;;;;5051526;28;20040;-78
2022/05/28 10:04:30;;;;;;;8.45;2.00;;;15.70;97.80;;;;;;5069115;28;20040;-78
2022/05/28 10:06:58;;;;;;;14.65;2.40;;;16.10;97.80;;;;;;5061841;28;20043;-77
2022/05/28 10:09:33;;;;;;;9.38;2.03;;;16.30;96.60;;;;;;5044065;28;20110;-78
2022/05/28 10:12:14;;;;;;;10.38;2.60;;;16.30;95.50;;;;;;5056403;28;20045;-78
2022/05/28 10:14:40;;;;;;;11.30;2.75;;;15.60;97.10;;;;;;5065707;28;20032;-78
2022/05/28 10:17:05;;;;;;;12.05;2.63;;;15.30;98.80;;;;;;5072568;28;20047;-78
2022/05/28 10:19:47;;;;;;;10.52;2.25;;;14.90;98.80;;;;;;5069144;28;20036;-78
2022/05/28 10:22:16;;;;;;;12.68;2.38;;;14.90;99.50;;;;;;5072645;28;20049;-78
2022/05/28 10:24:49;;;;;;;12.52;2.42;;;14.80;99.80;;;;;;5055918;28;20044;-78
2022/05/28 10:27:29;;;;;;;12.27;2.40;;;14.90;99.20;;;;;;5059512;28;20448;-78
2022/05/28 10:29:57;;;;;;;12.93;2.25;;;15.10;99.60;;;;;;5054004;28;20028;-79
2022/05/28 10:32:42;;;;;;;10.60;3.03;;;14.80;99.60;;;;;;5066667;28;20080;-78
2022/05/28 10:35:15;;;;;;;8.15;2.13;;;15.00;99.40;;;;;;5038998;28;20396;-78
2022/05/28 10:37:41;;;;;;;8.20;2.08;;;15.10;99.80;;;;;;5073307;28;20047;-78
2022/05/28 10:40:21;;;;;;;10.35;2.72;;;15.20;99.30;;;;;;5070661;28;20057;-78
2022/05/28 10:42:47;;;;;;;23.92;2.83;;;15.40;98.80;;;;;;5063026;28;20078;-78
2022/05/28 10:45:17;;;;;;;11.20;1.83;;;15.40;98.50;;;;;;5053527;28;20041;-78
2022/05/28 10:48:30;;;;;;;8.32;1.95;;;15.50;96.30;;;;;;5048082;28;20041;-76
2022/05/28 10:51:33;;;;;;;8.05;1.88;;;15.40;96.50;;;;;;4994199;28;20046;-76
2022/05/28 10:54:08;;;;;;;;;;;15.70;96.40;;;;;;5028827;28;20048;-76
2022/05/28 10:56:53;;;;;;;6.88;1.50;;;15.50;95.40;;;;;;5061242;28;20022;-76
2022/05/28 10:59:29;;;;;;;7.13;1.65;;;15.60;96.00;;;;;;5070086;28;20562;-76
2022/05/28 11:02:17;;;;;;;8.57;1.52;;;15.90;96.60;;;;;;5047167;28;20036;-76
2022/05/28 11:04:55;;;;;;;7.18;1.92;;;16.00;94.30;;;;;;5059466;28;20136;-76
2022/05/28 11:07:42;;;;;;;8.63;1.70;;;16.10;94.80;;;;;;5071239;28;20044;-76
2022/05/28 11:10:16;;;;;;;7.07;1.73;;;16.20;95.30;;;;;;5063806;28;20064;-76
2022/05/28 11:13:13;;;;;;;5.80;1.27;;;16.10;92.40;;;;;;5070672;28;20043;-76
2022/05/28 11:16:12;;;;;;;7.15;1.58;;;16.50;93.70;;;;;;5071115;28;20040;-77
2022/05/28 11:18:47;;;;;;;5.80;1.27;;;16.50;93.10;;;;;;5070707;28;20043;-76
2022/05/28 11:21:36;;;;;;;8.90;1.67;;;16.50;91.30;;;;;;5049928;28;20518;-76
2022/05/28 11:24:38;;;;;;;6.00;1.38;;;16.60;92.80;;;;;;5044306;28;20048;-76
2022/05/28 11:27:46;;;;;;;5.47;1.65;;;17.00;93.60;;;;;;5057833;28;20049;-76
2022/05/28 11:30:17;;;;;;;8.10;1.65;;;16.80;91.00;;;;;;5029795;28;20102;-76
2022/05/28 11:33:11;;;;;;;5.90;1.42;;;16.80;89.60;;;;;;5049635;28;20563;-76
2022/05/28 11:35:45;;;;;;;5.93;1.30;;;16.70;91.90;;;;;;5066526;28;20061;-76
2022/05/28 11:38:49;;;;;;;6.80;1.48;;;16.50;92.70;;;;;;5074541;28;20045;-77
2022/05/28 11:41:27;;;;;;;9.40;2.35;;;16.10;92.80;;;;;;5027592;28;20048;-76
2022/05/28 11:46:46;;;;;;;8.45;2.35;;;15.70;93.00;;;;;;5145541;22;19925;-75
2022/05/28 11:52:37;;;;;;;11.30;2.28;;;15.70;94.50;;;;;;5013506;22;20379;-74
2022/05/28 11:55:37;;;;;;;8.30;2.30;;;16.20;95.20;;;;;;5024269;28;20140;-75
2022/05/28 11:58:21;;;;;;;8.45;2.20;;;16.10;92.60;;;;;;4995076;28;20078;-75
2022/05/28 12:01:02;;;;;;;10.57;2.20;;;16.10;95.20;;;;;;5021055;28;20057;-75
2022/05/28 12:03:29;;;;;;;8.32;1.95;;;15.70;95.90;;;;;;5030097;28;20494;-75
2022/05/28 12:06:16;;;;;;;9.32;2.20;;;15.20;97.90;;;;;;5030472;28;20042;-75
2022/05/28 12:09:00;;;;;;;10.73;2.15;;;14.80;99.90;;;;;;5028925;28;20045;-75
2022/05/28 12:11:40;;;;;;;8.50;2.25;;;14.80;99.90;;;;;;5028772;28;20482;-75
2022/05/28 12:14:28;;;;;;;9.90;1.98;;;14.50;99.90;;;;;;5028677;28;20550;-75
2022/05/28 12:17:17;;;;;;;10.77;3.65;;;14.60;99.90;;;;;;5022782;28;20052;-75
2022/05/28 12:19:57;;;;;;;8.32;2.30;;;15.00;99.90;;;;;;5024937;28;20049;-75
2022/05/28 12:22:28;;;;;;;8.70;1.95;;;15.50;99.90;;;;;;5001977;28;20041;-75
2022/05/28 12:25:11;;;;;;;8.15;2.17;;;16.00;99.90;;;;;;5022564;28;20041;-75
2022/05/28 12:27:44;;;;;;;9.05;3.20;;;16.20;99.90;;;;;;5027392;28;20663;-75
2022/05/28 12:30:45;;;;;;;10.27;3.95;;;16.30;99.90;;;;;;5028351;28;20045;-75
2022/05/28 12:33:18;;;;;;;7.45;1.95;;;16.80;99.50;;;;;;5004153;28;20129;-75
2022/05/28 12:36:06;;;;;;;9.57;2.03;;;17.20;97.50;;;;;;5006601;28;20045;-75
2022/05/28 12:38:37;;;;;;;10.93;2.22;;;17.10;97.40;;;;;;5039004;28;20041;-74
2022/05/28 12:41:04;;;;;;;9.02;2.05;;;16.40;97.30;;;;;;5000094;28;20049;-73
2022/05/28 12:43:35;;;;;;;7.45;2.17;;;16.10;96.70;;;;;;5030819;28;20026;-75
2022/05/28 12:46:56;;;;;;;7.35;1.80;;;16.10;97.30;;;;;;5027512;28;20137;-74
2022/05/28 12:49:40;;;;;;;7.32;2.17;;;16.20;98.10;;;;;;5005114;28;20045;-74
2022/05/28 12:52:34;;;;;;;8.30;2.45;;;16.00;95.30;;;;;;5027638;28;20491;-74
2022/05/28 12:55:03;;;;;;;7.07;2.30;;;15.70;95.20;;;;;;5020582;28;20041;-74
2022/05/28 12:57:33;;;;;;;9.32;2.65;;;15.30;97.10;;;;;;5029434;28;20112;-73
2022/05/28 13:00:19;;;;;;;9.68;2.38;;;15.30;97.30;;;;;;5044519;28;20060;-74
2022/05/28 13:02:46;;;;;;;6.13;1.65;;;15.20;95.40;;;;;;5028695;28;20161;-74
2022/05/28 13:05:32;;;;;;;8.15;2.00;;;15.20;95.90;;;;;;5025795;28;20060;-74
2022/05/28 13:08:23;;;;;;;8.40;1.92;;;15.10;95.60;;;;;;5021650;28;20076;-74
2022/05/28 13:10:54;;;;;;;8.68;2.00;;;15.00;97.10;;;;;;5027076;28;20049;-75
2022/05/28 13:13:48;;;;;;;10.13;2.17;;;15.40;97.80;;;;;;5028343;28;20041;-75